sensor_id;sensor_type;location;lat;lon;timestamp;P1;durP1;ratioP1;P2;durP2;ratioP2
15814;SDS011;8008;50.024;8.172;2023-05-07T03:01:29;2.05;;;1.83;;
15814;SDS011;8008;50.024;8.172;2023-05-07T03:04:03;5.50;;;2.45;;
15814;SDS011;8008;50.024;8.172;2023-05-07T03:06:31;2.42;;;2.08;;
15814;SDS011;8008;50.024;8.172;2023-05-07T03:08:59;2.65;;;2.20;;
15814;SDS011;8008;50.024;8.172;2023-05-07T03:11:28;2.95;;;2.03;;
15814;SDS011;8008;50.024;8.172;2023-05-07T03:13:56;3.08;;;2.30;;
15814;SDS011;8008;50.024;8.172;2023-05-07T03:16:24;3.40;;;2.20;;
15814;SDS011;8008;50.024;8.172;2023-05-07T03:18:54;2.42;;;2.08;;
15814;SDS011;8008;50.024;8.172;2023-05-07T03:21:22;5.85;;;2.55;;
15814;SDS011;8008;50.024;8.172;2023-05-07T03:23:50;2.60;;;2.40;;
15814;SDS011;8008;50.024;8.172;2023-05-07T03:26:18;3.17;;;2.88;;
15814;SDS011;8008;50.024;8.172;2023-05-07T03:28:46;2.83;;;2.60;;
15814;SDS011;8008;50.024;8.172;2023-05-07T03:31:16;2.72;;;2.30;;
15814;SDS011;8008;50.024;8.172;2023-05-07T03:33:54;2.58;;;2.38;;
15814;SDS011;8008;50.024;8.172;2023-05-07T03:36:25;3.85;;;2.60;;
15814;SDS011;8008;50.024;8.172;2023-05-07T03:38:55;4.72;;;2.50;;
15814;SDS011;8008;50.024;8.172;2023-05-07T03:41:27;2.97;;;1.92;;
15814;SDS011;8008;50.024;8.172;2023-05-07T03:43:56;5.20;;;2.40;;
15814;SDS011;8008;50.024;8.172;2023-05-07T03:46:23;2.40;;;2.15;;
15814;SDS011;8008;50.024;8.172;2023-05-07T03:48:54;3.28;;;2.13;;
15814;SDS011;8008;50.024;8.172;2023-05-07T03:51:22;3.25;;;2.20;;
15814;SDS011;8008;50.024;8.172;2023-05-07T03:53:51;2.30;;;2.10;;
15814;SDS011;8008;50.024;8.172;2023-05-07T03:56:21;3.85;;;2.47;;
15814;SDS011;8008;50.024;8.172;2023-05-07T03:58:53;3.90;;;2.20;;
15814;SDS011;8008;50.024;8.172;2023-05-07T04:01:21;2.30;;;2.10;;
15814;SDS011;8008;50.024;8.172;2023-05-07T04:03:50;2.22;;;2.13;;
15814;SDS011;8008;50.024;8.172;2023-05-07T04:06:19;3.03;;;2.10;;
15814;SDS011;8008;50.024;8.172;2023-05-07T04:08:48;4.10;;;2.38;;
15814;SDS011;8008;50.024;8.172;2023-05-07T04:11:16;2.22;;;2.03;;
15814;SDS011;8008;50.024;8.172;2023-05-07T04:13:45;2.70;;;2.33;;
15814;SDS011;8008;50.024;8.172;2023-05-07T04:16:16;3.00;;;2.30;;
15814;SDS011;8008;50.024;8.172;2023-05-07T04:18:44;4.20;;;2.30;;
15814;SDS011;8008;50.024;8.172;2023-05-07T04:21:15;2.63;;;2.28;;
15814;SDS011;8008;50.024;8.172;2023-05-07T04:23:45;3.10;;;2.20;;
15814;SDS011;8008;50.024;8.172;2023-05-07T04:26:13;2.30;;;1.88;;
15814;SDS011;8008;50.024;8.172;2023-05-07T04:28:43;2.50;;;2.30;;
15814;SDS011;8008;50.024;8.172;2023-05-07T04:31:11;2.83;;;2.20;;
15814;SDS011;8008;50.024;8.172;2023-05-07T04:33:40;2.38;;;2.17;;
15814;SDS011;8008;50.024;8.172;2023-05-07T04:36:11;2.42;;;2.22;;
15814;SDS011;8008;50.024;8.172;2023-05-07T04:38:48;3.40;;;2.20;;
15814;SDS011;8008;50.024;8.172;2023-05-07T04:41:17;2.53;;;2.10;;
15814;SDS011;8008;50.024;8.172;2023-05-07T04:43:45;2.78;;;2.38;;
15814;SDS011;8008;50.024;8.172;2023-05-07T04:46:15;2.40;;;2.20;;
15814;SDS011;8008;50.024;8.172;2023-05-07T04:48:44;2.30;;;2.10;;
15814;SDS011;8008;50.024;8.172;2023-05-07T04:51:12;2.88;;;2.03;;
15814;SDS011;8008;50.024;8.172;2023-05-07T04:53:40;2.30;;;2.10;;
15814;SDS011;8008;50.024;8.172;2023-05-07T04:56:10;2.92;;;2.22;;
15814;SDS011;8008;50.024;8.172;2023-05-07T04:58:41;2.28;;;2.08;;
15814;SDS011;8008;50.024;8.172;2023-05-07T05:01:10;3.38;;;2.28;;
15814;SDS011;8008;50.024;8.172;2023-05-07T05:03:39;4.30;;;2.30;;
15814;SDS011;8008;50.024;8.172;2023-05-07T05:06:07;2.70;;;2.05;;
15814;SDS011;8008;50.024;8.172;2023-05-07T05:08:35;2.88;;;2.28;;
15814;SDS011;8008;50.024;8.172;2023-05-07T05:11:04;2.80;;;2.20;;
15814;SDS011;8008;50.024;8.172;2023-05-07T05:13:35;2.60;;;2.25;;
15814;SDS011;8008;50.024;8.172;2023-05-07T05:16:14;3.10;;;2.45;;
15814;SDS011;8008;50.024;8.172;2023-05-07T05:18:43;2.45;;;2.22;;
15814;SDS011;8008;50.024;8.172;2023-05-07T05:21:14;2.80;;;2.38;;
15814;SDS011;8008;50.024;8.172;2023-05-07T05:23:45;2.45;;;2.25;;
15814;SDS011;8008;50.024;8.172;2023-05-07T05:26:17;2.90;;;2.30;;
15814;SDS011;8008;50.024;8.172;2023-05-07T05:28:46;2.33;;;2.20;;
15814;SDS011;8008;50.024;8.172;2023-05-07T05:31:15;2.92;;;2.20;;
15814;SDS011;8008;50.024;8.172;2023-05-07T05:33:44;2.33;;;2.13;;
15814;SDS011;8008;50.024;8.172;2023-05-07T05:36:12;2.25;;;2.05;;
15814;SDS011;8008;50.024;8.172;2023-05-07T05:38:42;2.65;;;2.30;;
15814;SDS011;8008;50.024;8.172;2023-05-07T05:41:12;2.45;;;2.25;;
15814;SDS011;8008;50.024;8.172;2023-05-07T05:43:40;5.95;;;2.40;;
15814;SDS011;8008;50.024;8.172;2023-05-07T05:46:11;4.57;;;2.20;;
15814;SDS011;8008;50.024;8.172;2023-05-07T05:48:39;2.88;;;2.35;;
15814;SDS011;8008;50.024;8.172;2023-05-07T05:51:09;3.67;;;2.40;;
15814;SDS011;8008;50.024;8.172;2023-05-07T05:53:37;2.45;;;2.22;;
15814;SDS011;8008;50.024;8.172;2023-05-07T05:56:05;3.95;;;2.40;;
15814;SDS011;8008;50.024;8.172;2023-05-07T05:58:34;2.65;;;2.35;;
15814;SDS011;8008;50.024;8.172;2023-05-07T06:01:05;2.42;;;2.17;;
15814;SDS011;8008;50.024;8.172;2023-05-07T06:03:36;2.35;;;2.05;;
15814;SDS011;8008;50.024;8.172;2023-05-07T06:06:11;3.50;;;2.17;;
15814;SDS011;8008;50.024;8.172;2023-05-07T06:08:41;2.88;;;2.00;;
15814;SDS011;8008;50.024;8.172;2023-05-07T06:11:12;2.20;;;2.00;;
15814;SDS011;8008;50.024;8.172;2023-05-07T06:13:43;2.10;;;1.90;;
15814;SDS011;8008;50.024;8.172;2023-05-07T06:16:11;2.25;;;1.90;;
15814;SDS011;8008;50.024;8.172;2023-05-07T06:18:40;2.20;;;1.90;;
15814;SDS011;8008;50.024;8.172;2023-05-07T06:21:09;3.58;;;2.00;;
15814;SDS011;8008;50.024;8.172;2023-05-07T06:23:37;1.80;;;1.67;;
15814;SDS011;8008;50.024;8.172;2023-05-07T06:26:07;3.65;;;1.95;;
15814;SDS011;8008;50.024;8.172;2023-05-07T06:28:39;2.85;;;2.10;;
15814;SDS011;8008;50.024;8.172;2023-05-07T06:31:10;3.00;;;2.20;;
15814;SDS011;8008;50.024;8.172;2023-05-07T06:33:42;2.50;;;2.30;;
15814;SDS011;8008;50.024;8.172;2023-05-07T06:36:13;2.28;;;2.00;;
15814;SDS011;8008;50.024;8.172;2023-05-07T06:38:41;2.42;;;1.95;;
15814;SDS011;8008;50.024;8.172;2023-05-07T06:41:09;2.63;;;2.00;;
15814;SDS011;8008;50.024;8.172;2023-05-07T06:43:38;4.30;;;1.90;;
15814;SDS011;8008;50.024;8.172;2023-05-07T06:46:24;2.45;;;1.90;;
15814;SDS011;8008;50.024;8.172;2023-05-07T06:48:53;2.25;;;2.05;;
15814;SDS011;8008;50.024;8.172;2023-05-07T06:51:22;2.08;;;1.98;;
15814;SDS011;8008;50.024;8.172;2023-05-07T06:53:50;1.98;;;1.88;;
15814;SDS011;8008;50.024;8.172;2023-05-07T06:56:18;2.10;;;1.98;;
15814;SDS011;8008;50.024;8.172;2023-05-07T06:58:47;2.40;;;2.20;;
15814;SDS011;8008;50.024;8.172;2023-05-07T07:01:16;2.78;;;2.20;;
15814;SDS011;8008;50.024;8.172;2023-05-07T07:03:44;3.88;;;2.13;;
15814;SDS011;8008;50.024;8.172;2023-05-07T07:06:13;2.45;;;2.25;;
15814;SDS011;8008;50.024;8.172;2023-05-07T07:08:41;3.05;;;2.05;;
15814;SDS011;8008;50.024;8.172;2023-05-07T07:11:12;2.60;;;2.30;;
15814;SDS011;8008;50.024;8.172;2023-05-07T07:13:41;3.05;;;2.20;;
15814;SDS011;8008;50.024;8.172;2023-05-07T07:16:09;3.17;;;2.45;;
15814;SDS011;8008;50.024;8.172;2023-05-07T07:18:38;3.67;;;2.40;;
15814;SDS011;8008;50.024;8.172;2023-05-07T07:21:06;2.88;;;2.40;;
15814;SDS011;8008;50.024;8.172;2023-05-07T07:23:35;3.30;;;2.40;;
15814;SDS011;8008;50.024;8.172;2023-05-07T07:26:04;5.07;;;2.42;;
15814;SDS011;8008;50.024;8.172;2023-05-07T07:28:32;2.58;;;2.38;;
15814;SDS011;8008;50.024;8.172;2023-05-07T07:31:00;2.78;;;2.28;;
15814;SDS011;8008;50.024;8.172;2023-05-07T07:33:30;2.50;;;2.30;;
15814;SDS011;8008;50.024;8.172;2023-05-07T07:35:58;4.57;;;2.47;;
15814;SDS011;8008;50.024;8.172;2023-05-07T07:38:25;2.50;;;2.30;;
15814;SDS011;8008;50.024;8.172;2023-05-07T07:40:55;2.60;;;2.40;;
15814;SDS011;8008;50.024;8.172;2023-05-07T07:43:23;4.03;;;2.40;;
15814;SDS011;8008;50.024;8.172;2023-05-07T07:45:52;2.85;;;2.33;;
15814;SDS011;8008;50.024;8.172;2023-05-07T07:48:20;3.72;;;2.55;;
15814;SDS011;8008;50.024;8.172;2023-05-07T07:50:48;3.63;;;2.50;;
15814;SDS011;8008;50.024;8.172;2023-05-07T07:53:18;2.80;;;2.50;;
15814;SDS011;8008;50.024;8.172;2023-05-07T07:55:46;3.53;;;2.50;;
15814;SDS011;8008;50.024;8.172;2023-05-07T07:58:18;2.50;;;2.30;;
15814;SDS011;8008;50.024;8.172;2023-05-07T08:00:48;3.03;;;2.35;;
15814;SDS011;8008;50.024;8.172;2023-05-07T08:03:16;2.80;;;2.50;;
15814;SDS011;8008;50.024;8.172;2023-05-07T08:05:50;2.75;;;2.42;;
15814;SDS011;8008;50.024;8.172;2023-05-07T08:08:18;2.60;;;2.40;;
15814;SDS011;8008;50.024;8.172;2023-05-07T08:10:47;2.83;;;2.58;;
15814;SDS011;8008;50.024;8.172;2023-05-07T08:13:25;3.00;;;2.50;;
15814;SDS011;8008;50.024;8.172;2023-05-07T08:15:53;2.70;;;2.50;;
15814;SDS011;8008;50.024;8.172;2023-05-07T08:18:23;2.83;;;2.60;;
15814;SDS011;8008;50.024;8.172;2023-05-07T08:20:53;2.88;;;2.58;;
15814;SDS011;8008;50.024;8.172;2023-05-07T08:23:24;2.92;;;2.58;;
15814;SDS011;8008;50.024;8.172;2023-05-07T08:25:52;3.03;;;2.67;;
15814;SDS011;8008;50.024;8.172;2023-05-07T08:28:21;3.00;;;2.70;;
15814;SDS011;8008;50.024;8.172;2023-05-07T08:30:52;3.40;;;3.10;;
15814;SDS011;8008;50.024;8.172;2023-05-07T08:33:20;4.88;;;3.28;;
15814;SDS011;8008;50.024;8.172;2023-05-07T08:35:48;3.83;;;2.95;;
15814;SDS011;8008;50.024;8.172;2023-05-07T08:38:16;3.40;;;3.10;;
15814;SDS011;8008;50.024;8.172;2023-05-07T08:40:44;3.92;;;2.67;;
15814;SDS011;8008;50.024;8.172;2023-05-07T08:43:18;3.28;;;2.70;;
15814;SDS011;8008;50.024;8.172;2023-05-07T08:45:47;3.00;;;2.80;;
15814;SDS011;8008;50.024;8.172;2023-05-07T08:48:21;3.00;;;2.80;;
15814;SDS011;8008;50.024;8.172;2023-05-07T08:50:58;5.07;;;2.95;;
15814;SDS011;8008;50.024;8.172;2023-05-07T08:53:26;3.95;;;2.78;;
15814;SDS011;8008;50.024;8.172;2023-05-07T08:55:55;3.38;;;3.00;;
15814;SDS011;8008;50.024;8.172;2023-05-07T08:58:23;3.80;;;3.30;;
15814;SDS011;8008;50.024;8.172;2023-05-07T09:00:51;2.92;;;2.72;;
15814;SDS011;8008;50.024;8.172;2023-05-07T09:03:23;3.10;;;2.80;;
15814;SDS011;8008;50.024;8.172;2023-05-07T09:05:53;4.00;;;3.00;;
15814;SDS011;8008;50.024;8.172;2023-05-07T09:08:24;5.00;;;3.10;;
15814;SDS011;8008;50.024;8.172;2023-05-07T09:10:55;3.22;;;2.80;;
15814;SDS011;8008;50.024;8.172;2023-05-07T09:13:23;2.70;;;2.50;;
15814;SDS011;8008;50.024;8.172;2023-05-07T09:15:51;3.78;;;2.80;;
15814;SDS011;8008;50.024;8.172;2023-05-07T09:18:20;3.35;;;3.00;;
15814;SDS011;8008;50.024;8.172;2023-05-07T09:20:49;3.50;;;3.20;;
15814;SDS011;8008;50.024;8.172;2023-05-07T09:23:20;3.45;;;3.15;;
15814;SDS011;8008;50.024;8.172;2023-05-07T09:25:48;3.50;;;2.97;;
15814;SDS011;8008;50.024;8.172;2023-05-07T09:28:25;3.65;;;2.95;;
15814;SDS011;8008;50.024;8.172;2023-05-07T09:30:53;4.28;;;3.30;;
15814;SDS011;8008;50.024;8.172;2023-05-07T09:33:24;5.30;;;3.30;;
15814;SDS011;8008;50.024;8.172;2023-05-07T09:35:56;3.72;;;3.30;;
15814;SDS011;8008;50.024;8.172;2023-05-07T09:38:24;3.88;;;3.33;;
15814;SDS011;8008;50.024;8.172;2023-05-07T09:41:03;3.55;;;3.25;;
15814;SDS011;8008;50.024;8.172;2023-05-07T09:43:36;4.75;;;3.30;;
15814;SDS011;8008;50.024;8.172;2023-05-07T09:46:07;3.50;;;3.20;;
15814;SDS011;8008;50.024;8.172;2023-05-07T09:48:42;3.78;;;3.38;;
15814;SDS011;8008;50.024;8.172;2023-05-07T09:51:18;3.10;;;2.80;;
15814;SDS011;8008;50.024;8.172;2023-05-07T09:53:54;6.32;;;3.20;;
15814;SDS011;8008;50.024;8.172;2023-05-07T09:56:27;3.10;;;2.85;;
15814;SDS011;8008;50.024;8.172;2023-05-07T09:58:58;3.80;;;3.40;;
15814;SDS011;8008;50.024;8.172;2023-05-07T10:01:30;3.67;;;3.10;;
15814;SDS011;8008;50.024;8.172;2023-05-07T10:04:01;3.63;;;3.33;;
15814;SDS011;8008;50.024;8.172;2023-05-07T10:06:32;3.88;;;3.58;;
15814;SDS011;8008;50.024;8.172;2023-05-07T10:09:00;4.53;;;3.92;;
15814;SDS011;8008;50.024;8.172;2023-05-07T10:11:29;3.60;;;3.25;;
15814;SDS011;8008;50.024;8.172;2023-05-07T10:13:59;3.83;;;3.42;;
15814;SDS011;8008;50.024;8.172;2023-05-07T10:16:31;3.53;;;3.10;;
15814;SDS011;8008;50.024;8.172;2023-05-07T10:19:05;4.45;;;3.80;;
15814;SDS011;8008;50.024;8.172;2023-05-07T10:21:38;4.32;;;3.38;;
15814;SDS011;8008;50.024;8.172;2023-05-07T10:24:08;3.95;;;3.38;;
15814;SDS011;8008;50.024;8.172;2023-05-07T10:26:42;3.88;;;3.47;;
15814;SDS011;8008;50.024;8.172;2023-05-07T10:29:13;4.07;;;3.67;;
15814;SDS011;8008;50.024;8.172;2023-05-07T10:31:54;4.25;;;3.30;;
15814;SDS011;8008;50.024;8.172;2023-05-07T10:34:28;3.90;;;3.42;;
15814;SDS011;8008;50.024;8.172;2023-05-07T10:37:01;3.40;;;3.10;;
15814;SDS011;8008;50.024;8.172;2023-05-07T10:39:30;4.00;;;3.30;;
15814;SDS011;8008;50.024;8.172;2023-05-07T10:42:07;3.60;;;3.30;;
15814;SDS011;8008;50.024;8.172;2023-05-07T10:44:36;3.65;;;3.10;;
15814;SDS011;8008;50.024;8.172;2023-05-07T10:47:09;5.57;;;3.45;;
15814;SDS011;8008;50.024;8.172;2023-05-07T10:56:24;4.15;;;3.55;;
15814;SDS011;8008;50.024;8.172;2023-05-07T10:59:33;3.60;;;3.30;;
15814;SDS011;8008;50.024;8.172;2023-05-07T11:02:15;4.50;;;3.85;;
15814;SDS011;8008;50.024;8.172;2023-05-07T11:08:05;3.70;;;3.40;;
15814;SDS011;8008;50.024;8.172;2023-05-07T11:10:49;3.80;;;3.40;;
15814;SDS011;8008;50.024;8.172;2023-05-07T11:13:42;3.60;;;3.30;;
15814;SDS011;8008;50.024;8.172;2023-05-07T11:16:34;3.90;;;3.50;;
15814;SDS011;8008;50.024;8.172;2023-05-07T11:19:11;4.10;;;3.70;;
15814;SDS011;8008;50.024;8.172;2023-05-07T11:21:44;4.22;;;3.53;;
15814;SDS011;8008;50.024;8.172;2023-05-07T11:24:19;3.78;;;3.33;;
15814;SDS011;8008;50.024;8.172;2023-05-07T11:26:54;3.33;;;3.03;;
15814;SDS011;8008;50.024;8.172;2023-05-07T11:29:24;3.78;;;3.47;;
15814;SDS011;8008;50.024;8.172;2023-05-07T11:31:58;3.95;;;3.60;;
15814;SDS011;8008;50.024;8.172;2023-05-07T11:34:32;3.83;;;3.53;;
15814;SDS011;8008;50.024;8.172;2023-05-07T11:37:01;3.42;;;3.13;;
15814;SDS011;8008;50.024;8.172;2023-05-07T11:39:45;3.60;;;3.30;;
15814;SDS011;8008;50.024;8.172;2023-05-07T11:42:28;3.80;;;3.13;;
15814;SDS011;8008;50.024;8.172;2023-05-07T11:44:56;3.53;;;3.22;;
15814;SDS011;8008;50.024;8.172;2023-05-07T11:47:25;3.25;;;2.95;;
15814;SDS011;8008;50.024;8.172;2023-05-07T11:49:54;3.75;;;3.45;;
15814;SDS011;8008;50.024;8.172;2023-05-07T11:52:23;3.40;;;3.10;;
15814;SDS011;8008;50.024;8.172;2023-05-07T11:54:51;3.55;;;3.15;;
15814;SDS011;8008;50.024;8.172;2023-05-07T11:57:21;5.70;;;4.07;;
15814;SDS011;8008;50.024;8.172;2023-05-07T11:59:53;3.95;;;3.47;;
15814;SDS011;8008;50.024;8.172;2023-05-07T12:02:21;3.75;;;3.10;;
15814;SDS011;8008;50.024;8.172;2023-05-07T12:04:51;3.85;;;3.55;;
15814;SDS011;8008;50.024;8.172;2023-05-07T12:07:20;3.53;;;3.22;;
15814;SDS011;8008;50.024;8.172;2023-05-07T12:09:48;3.30;;;3.00;;
15814;SDS011;8008;50.024;8.172;2023-05-07T12:12:16;3.72;;;3.10;;
15814;SDS011;8008;50.024;8.172;2023-05-07T12:14:45;3.22;;;2.92;;
15814;SDS011;8008;50.024;8.172;2023-05-07T12:17:14;3.72;;;2.95;;
15814;SDS011;8008;50.024;8.172;2023-05-07T12:19:43;3.30;;;3.00;;
15814;SDS011;8008;50.024;8.172;2023-05-07T12:22:12;4.85;;;3.10;;
15814;SDS011;8008;50.024;8.172;2023-05-07T12:24:44;3.70;;;3.40;;
15814;SDS011;8008;50.024;8.172;2023-05-07T12:27:12;2.97;;;2.78;;
15814;SDS011;8008;50.024;8.172;2023-05-07T12:29:43;3.55;;;3.00;;
15814;SDS011;8008;50.024;8.172;2023-05-07T12:32:13;3.33;;;3.13;;
15814;SDS011;8008;50.024;8.172;2023-05-07T12:34:42;3.60;;;3.30;;
15814;SDS011;8008;50.024;8.172;2023-05-07T12:37:11;3.67;;;3.10;;
15814;SDS011;8008;50.024;8.172;2023-05-07T12:39:43;4.22;;;2.97;;
15814;SDS011;8008;50.024;8.172;2023-05-07T12:42:14;2.90;;;2.70;;
15814;SDS011;8008;50.024;8.172;2023-05-07T12:44:45;3.30;;;3.03;;
15814;SDS011;8008;50.024;8.172;2023-05-07T12:47:14;3.38;;;2.92;;
15814;SDS011;8008;50.024;8.172;2023-05-07T12:49:42;3.08;;;2.80;;
15814;SDS011;8008;50.024;8.172;2023-05-07T12:52:12;3.45;;;3.10;;
15814;SDS011;8008;50.024;8.172;2023-05-07T12:54:41;2.90;;;2.70;;
15814;SDS011;8008;50.024;8.172;2023-05-07T12:57:09;2.92;;;2.63;;
15814;SDS011;8008;50.024;8.172;2023-05-07T12:59:38;2.92;;;2.72;;
15814;SDS011;8008;50.024;8.172;2023-05-07T13:02:07;2.80;;;2.60;;
15814;SDS011;8008;50.024;8.172;2023-05-07T13:04:40;3.20;;;2.90;;
15814;SDS011;8008;50.024;8.172;2023-05-07T13:07:08;3.40;;;3.17;;
15814;SDS011;8008;50.024;8.172;2023-05-07T13:09:36;3.83;;;2.70;;
15814;SDS011;8008;50.024;8.172;2023-05-07T13:12:04;3.13;;;2.80;;
15814;SDS011;8008;50.024;8.172;2023-05-07T13:14:33;3.15;;;2.80;;
15814;SDS011;8008;50.024;8.172;2023-05-07T13:17:01;2.80;;;2.60;;
15814;SDS011;8008;50.024;8.172;2023-05-07T13:19:29;2.92;;;2.70;;
15814;SDS011;8008;50.024;8.172;2023-05-07T13:21:58;2.70;;;2.50;;
15814;SDS011;8008;50.024;8.172;2023-05-07T13:24:26;2.75;;;2.55;;
15814;SDS011;8008;50.024;8.172;2023-05-07T13:26:54;2.80;;;2.60;;
15814;SDS011;8008;50.024;8.172;2023-05-07T13:29:22;3.00;;;2.70;;
15814;SDS011;8008;50.024;8.172;2023-05-07T13:31:54;2.70;;;2.47;;
15814;SDS011;8008;50.024;8.172;2023-05-07T13:34:23;2.10;;;1.95;;
15814;SDS011;8008;50.024;8.172;2023-05-07T13:36:51;2.55;;;2.35;;
15814;SDS011;8008;50.024;8.172;2023-05-07T13:39:20;2.45;;;2.20;;
15814;SDS011;8008;50.024;8.172;2023-05-07T13:41:48;2.38;;;2.10;;
15814;SDS011;8008;50.024;8.172;2023-05-07T13:44:16;2.40;;;2.08;;
15814;SDS011;8008;50.024;8.172;2023-05-07T13:46:44;2.20;;;2.10;;
15814;SDS011;8008;50.024;8.172;2023-05-07T13:49:12;2.00;;;1.85;;
15814;SDS011;8008;50.024;8.172;2023-05-07T13:51:40;2.13;;;2.00;;
15814;SDS011;8008;50.024;8.172;2023-05-07T13:54:08;2.10;;;2.00;;
15814;SDS011;8008;50.024;8.172;2023-05-07T13:56:38;2.90;;;2.63;;
15814;SDS011;8008;50.024;8.172;2023-05-07T13:59:06;2.83;;;2.47;;
15814;SDS011;8008;50.024;8.172;2023-05-07T14:01:34;2.40;;;2.20;;
15814;SDS011;8008;50.024;8.172;2023-05-07T14:04:02;2.20;;;2.00;;
15814;SDS011;8008;50.024;8.172;2023-05-07T14:06:30;2.30;;;2.10;;
15814;SDS011;8008;50.024;8.172;2023-05-07T14:08:58;2.03;;;1.92;;
15814;SDS011;8008;50.024;8.172;2023-05-07T14:11:26;3.42;;;1.98;;
15814;SDS011;8008;50.024;8.172;2023-05-07T14:13:56;3.35;;;1.92;;
15814;SDS011;8008;50.024;8.172;2023-05-07T14:16:24;2.28;;;2.17;;
15814;SDS011;8008;50.024;8.172;2023-05-07T14:18:52;1.90;;;1.80;;
15814;SDS011;8008;50.024;8.172;2023-05-07T14:21:23;1.83;;;1.73;;
15814;SDS011;8008;50.024;8.172;2023-05-07T14:23:51;2.28;;;2.00;;
15814;SDS011;8008;50.024;8.172;2023-05-07T14:26:19;2.53;;;2.33;;
15814;SDS011;8008;50.024;8.172;2023-05-07T14:28:49;2.42;;;2.22;;
15814;SDS011;8008;50.024;8.172;2023-05-07T14:31:18;2.45;;;2.25;;
15814;SDS011;8008;50.024;8.172;2023-05-07T14:33:46;2.20;;;2.00;;
15814;SDS011;8008;50.024;8.172;2023-05-07T14:36:16;2.17;;;2.03;;
15814;SDS011;8008;50.024;8.172;2023-05-07T14:38:43;2.03;;;1.90;;
15814;SDS011;8008;50.024;8.172;2023-05-07T14:41:11;2.22;;;2.10;;
15814;SDS011;8008;50.024;8.172;2023-05-07T14:43:41;2.65;;;2.45;;
15814;SDS011;8008;50.024;8.172;2023-05-07T14:46:10;2.60;;;2.40;;
15814;SDS011;8008;50.024;8.172;2023-05-07T14:48:39;3.10;;;2.40;;
15814;SDS011;8008;50.024;8.172;2023-05-07T14:51:07;2.25;;;2.00;;
15814;SDS011;8008;50.024;8.172;2023-05-07T14:53:35;3.03;;;2.35;;
15814;SDS011;8008;50.024;8.172;2023-05-07T14:56:03;3.50;;;2.28;;
15814;SDS011;8008;50.024;8.172;2023-05-07T14:58:31;2.63;;;2.33;;
15814;SDS011;8008;50.024;8.172;2023-05-07T15:01:00;2.80;;;2.60;;
15814;SDS011;8008;50.024;8.172;2023-05-07T15:03:28;4.25;;;2.80;;
15814;SDS011;8008;50.024;8.172;2023-05-07T15:05:58;2.70;;;2.50;;
15814;SDS011;8008;50.024;8.172;2023-05-07T15:08:26;3.20;;;2.90;;
15814;SDS011;8008;50.024;8.172;2023-05-07T15:10:54;3.38;;;3.08;;
15814;SDS011;8008;50.024;8.172;2023-05-07T15:13:22;3.40;;;3.08;;
15814;SDS011;8008;50.024;8.172;2023-05-07T15:15:53;4.82;;;3.00;;
15814;SDS011;8008;50.024;8.172;2023-05-07T15:18:21;2.88;;;2.67;;
15814;SDS011;8008;50.024;8.172;2023-05-07T15:20:49;2.67;;;2.47;;
15814;SDS011;8008;50.024;8.172;2023-05-07T15:23:18;3.25;;;2.95;;
15814;SDS011;8008;50.024;8.172;2023-05-07T15:25:48;4.07;;;2.88;;
15814;SDS011;8008;50.024;8.172;2023-05-07T15:28:18;3.30;;;3.00;;
15814;SDS011;8008;50.024;8.172;2023-05-07T15:30:46;3.72;;;2.80;;
15814;SDS011;8008;50.024;8.172;2023-05-07T15:33:14;3.10;;;2.80;;
15814;SDS011;8008;50.024;8.172;2023-05-07T15:35:41;3.58;;;2.78;;
15814;SDS011;8008;50.024;8.172;2023-05-07T15:38:09;2.95;;;2.70;;
15814;SDS011;8008;50.024;8.172;2023-05-07T15:40:40;2.80;;;2.60;;
15814;SDS011;8008;50.024;8.172;2023-05-07T15:43:09;3.17;;;2.95;;
15814;SDS011;8008;50.024;8.172;2023-05-07T15:45:38;3.38;;;3.00;;
15814;SDS011;8008;50.024;8.172;2023-05-07T15:48:06;3.13;;;2.92;;
15814;SDS011;8008;50.024;8.172;2023-05-07T15:50:34;3.65;;;2.97;;
15814;SDS011;8008;50.024;8.172;2023-05-07T15:53:02;3.75;;;3.30;;
15814;SDS011;8008;50.024;8.172;2023-05-07T15:55:31;3.60;;;3.20;;
15814;SDS011;8008;50.024;8.172;2023-05-07T15:58:01;7.85;;;3.10;;
15814;SDS011;8008;50.024;8.172;2023-05-07T16:00:31;3.70;;;3.10;;
15814;SDS011;8008;50.024;8.172;2023-05-07T16:03:01;3.20;;;2.90;;
15814;SDS011;8008;50.024;8.172;2023-05-07T16:05:30;3.45;;;3.00;;
15814;SDS011;8008;50.024;8.172;2023-05-07T16:07:58;3.17;;;2.90;;
15814;SDS011;8008;50.024;8.172;2023-05-07T16:10:26;3.85;;;2.95;;
15814;SDS011;8008;50.024;8.172;2023-05-07T16:12:54;3.67;;;2.97;;
15814;SDS011;8008;50.024;8.172;2023-05-07T16:15:23;3.40;;;3.00;;
15814;SDS011;8008;50.024;8.172;2023-05-07T16:17:51;3.10;;;2.90;;
15814;SDS011;8008;50.024;8.172;2023-05-07T16:20:25;3.75;;;3.08;;
15814;SDS011;8008;50.024;8.172;2023-05-07T16:22:56;2.92;;;2.70;;
15814;SDS011;8008;50.024;8.172;2023-05-07T16:25:24;3.20;;;2.70;;
15814;SDS011;8008;50.024;8.172;2023-05-07T16:27:52;3.03;;;2.72;;
15814;SDS011;8008;50.024;8.172;2023-05-07T16:30:20;2.95;;;2.75;;
15814;SDS011;8008;50.024;8.172;2023-05-07T16:32:49;3.28;;;2.97;;
15814;SDS011;8008;50.024;8.172;2023-05-07T16:35:17;3.33;;;2.80;;
15814;SDS011;8008;50.024;8.172;2023-05-07T16:37:45;3.05;;;2.78;;
15814;SDS011;8008;50.024;8.172;2023-05-07T16:40:13;2.90;;;2.60;;
15814;SDS011;8008;50.024;8.172;2023-05-07T16:42:41;4.38;;;2.60;;
15814;SDS011;8008;50.024;8.172;2023-05-07T16:45:09;2.78;;;2.50;;
15814;SDS011;8008;50.024;8.172;2023-05-07T16:47:38;4.55;;;2.78;;
15814;SDS011;8008;50.024;8.172;2023-05-07T16:50:08;2.72;;;2.53;;
15814;SDS011;8008;50.024;8.172;2023-05-07T16:52:36;3.30;;;3.00;;
15814;SDS011;8008;50.024;8.172;2023-05-07T16:55:04;6.88;;;2.80;;
15814;SDS011;8008;50.024;8.172;2023-05-07T16:57:33;3.55;;;3.20;;
15814;SDS011;8008;50.024;8.172;2023-05-07T17:00:01;3.53;;;3.08;;
15814;SDS011;8008;50.024;8.172;2023-05-07T17:02:32;4.50;;;3.70;;
15814;SDS011;8008;50.024;8.172;2023-05-07T17:05:01;7.05;;;3.75;;
15814;SDS011;8008;50.024;8.172;2023-05-07T17:07:32;5.68;;;4.00;;
15814;SDS011;8008;50.024;8.172;2023-05-07T17:10:00;6.93;;;4.22;;
15814;SDS011;8008;50.024;8.172;2023-05-07T17:12:28;5.78;;;4.30;;
15814;SDS011;8008;50.024;8.172;2023-05-07T17:14:57;6.90;;;4.50;;
15814;SDS011;8008;50.024;8.172;2023-05-07T17:17:25;7.63;;;4.40;;
15814;SDS011;8008;50.024;8.172;2023-05-07T17:19:53;5.80;;;4.50;;
15814;SDS011;8008;50.024;8.172;2023-05-07T17:22:21;5.15;;;4.65;;
15814;SDS011;8008;50.024;8.172;2023-05-07T17:24:51;5.70;;;4.80;;
15814;SDS011;8008;50.024;8.172;2023-05-07T17:27:19;6.15;;;4.85;;
15814;SDS011;8008;50.024;8.172;2023-05-07T17:29:47;7.40;;;5.50;;
15814;SDS011;8008;50.024;8.172;2023-05-07T17:32:15;6.93;;;5.32;;
15814;SDS011;8008;50.024;8.172;2023-05-07T17:34:43;7.93;;;5.47;;
15814;SDS011;8008;50.024;8.172;2023-05-07T17:37:12;6.30;;;5.22;;
15814;SDS011;8008;50.024;8.172;2023-05-07T17:39:40;6.28;;;4.75;;
15814;SDS011;8008;50.024;8.172;2023-05-07T17:42:09;6.72;;;4.80;;
15814;SDS011;8008;50.024;8.172;2023-05-07T17:44:37;6.82;;;5.68;;
15814;SDS011;8008;50.024;8.172;2023-05-07T17:47:05;7.95;;;5.70;;
15814;SDS011;8008;50.024;8.172;2023-05-07T17:49:33;7.43;;;5.75;;
15814;SDS011;8008;50.024;8.172;2023-05-07T17:52:02;6.22;;;5.63;;
15814;SDS011;8008;50.024;8.172;2023-05-07T17:54:30;10.68;;;6.20;;
15814;SDS011;8008;50.024;8.172;2023-05-07T17:56:58;8.63;;;5.90;;
15814;SDS011;8008;50.024;8.172;2023-05-07T17:59:28;10.25;;;5.90;;
15814;SDS011;8008;50.024;8.172;2023-05-07T18:01:56;11.88;;;6.10;;
15814;SDS011;8008;50.024;8.172;2023-05-07T18:04:24;7.70;;;6.38;;
15814;SDS011;8008;50.024;8.172;2023-05-07T18:06:53;9.40;;;7.18;;
15814;SDS011;8008;50.024;8.172;2023-05-07T18:09:22;11.45;;;6.85;;
15814;SDS011;8008;50.024;8.172;2023-05-07T18:11:50;11.88;;;6.88;;
15814;SDS011;8008;50.024;8.172;2023-05-07T18:14:18;8.75;;;6.43;;
15814;SDS011;8008;50.024;8.172;2023-05-07T18:16:51;10.23;;;7.15;;
15814;SDS011;8008;50.024;8.172;2023-05-07T18:19:19;9.13;;;6.75;;
15814;SDS011;8008;50.024;8.172;2023-05-07T18:21:47;8.73;;;6.40;;
15814;SDS011;8008;50.024;8.172;2023-05-07T18:24:15;8.88;;;6.30;;
15814;SDS011;8008;50.024;8.172;2023-05-07T18:26:44;7.85;;;6.22;;